sensor_id;sensor_type;location;lat;lon;timestamp;temperature;humidity
22442;DHT22;11388;54.456;9.752;2023-02-22T00:01:32;8.40;99.90
22442;DHT22;11388;54.456;9.752;2023-02-22T00:04:02;8.40;99.90
22442;DHT22;11388;54.456;9.752;2023-02-22T00:06:28;8.40;99.90
22442;DHT22;11388;54.456;9.752;2023-02-22T00:08:56;8.50;99.90
22442;DHT22;11388;54.456;9.752;2023-02-22T00:11:23;8.50;99.90
22442;DHT22;11388;54.456;9.752;2023-02-22T00:13:48;8.50;99.90
22442;DHT22;11388;54.456;9.752;2023-02-22T00:16:22;8.60;99.90
22442;DHT22;11388;54.456;9.752;2023-02-22T00:18:48;8.60;99.90
22442;DHT22;11388;54.456;9.752;2023-02-22T00:21:15;8.60;99.90
22442;DHT22;11388;54.456;9.752;2023-02-22T00:23:43;8.60;99.90
22442;DHT22;11388;54.456;9.752;2023-02-22T00:26:20;8.50;99.90
22442;DHT22;11388;54.456;9.752;2023-02-22T00:28:47;8.40;99.90
22442;DHT22;11388;54.456;9.752;2023-02-22T00:31:13;8.20;99.90
22442;DHT22;11388;54.456;9.752;2023-02-22T00:33:39;8.20;99.90
22442;DHT22;11388;54.456;9.752;2023-02-22T00:36:06;8.40;99.90
22442;DHT22;11388;54.456;9.752;2023-02-22T00:38:32;8.50;99.90
22442;DHT22;11388;54.456;9.752;2023-02-22T00:40:57;8.70;99.90
22442;DHT22;11388;54.456;9.752;2023-02-22T00:43:25;8.70;99.90
22442;DHT22;11388;54.456;9.752;2023-02-22T00:45:51;8.50;99.90
22442;DHT22;11388;54.456;9.752;2023-02-22T00:48:18;8.50;99.90
22442;DHT22;11388;54.456;9.752;2023-02-22T00:50:44;8.50;99.90
22442;DHT22;11388;54.456;9.752;2023-02-22T00:53:13;8.40;99.90
22442;DHT22;11388;54.456;9.752;2023-02-22T00:55:39;8.50;99.90
22442;DHT22;11388;54.456;9.752;2023-02-22T00:58:05;8.40;99.90
22442;DHT22;11388;54.456;9.752;2023-02-22T01:00:34;8.40;99.90
22442;DHT22;11388;54.456;9.752;2023-02-22T01:03:01;8.40;99.90
22442;DHT22;11388;54.456;9.752;2023-02-22T01:05:29;8.40;99.90
22442;DHT22;11388;54.456;9.752;2023-02-22T01:07:56;8.40;99.90
22442;DHT22;11388;54.456;9.752;2023-02-22T01:10:24;8.40;99.90
22442;DHT22;11388;54.456;9.752;2023-02-22T01:12:51;8.30;99.90
22442;DHT22;11388;54.456;9.752;2023-02-22T01:15:22;8.10;99.90
22442;DHT22;11388;54.456;9.752;2023-02-22T01:17:51;8.10;99.90
22442;DHT22;11388;54.456;9.752;2023-02-22T01:20:19;8.10;99.90
22442;DHT22;11388;54.456;9.752;2023-02-22T01:22:47;8.10;99.90
22442;DHT22;11388;54.456;9.752;2023-02-22T01:25:23;8.10;99.90
22442;DHT22;11388;54.456;9.752;2023-02-22T01:27:50;8.20;99.90
22442;DHT22;11388;54.456;9.752;2023-02-22T01:30:20;8.20;99.90
22442;DHT22;11388;54.456;9.752;2023-02-22T01:32:46;8.20;99.90
22442;DHT22;11388;54.456;9.752;2023-02-22T01:35:14;8.30;99.90
22442;DHT22;11388;54.456;9.752;2023-02-22T01:37:40;8.30;99.90
22442;DHT22;11388;54.456;9.752;2023-02-22T01:40:09;8.20;99.90
22442;DHT22;11388;54.456;9.752;2023-02-22T01:42:36;8.40;99.90
22442;DHT22;11388;54.456;9.752;2023-02-22T01:48:00;8.40;99.90
22442;DHT22;11388;54.456;9.752;2023-02-22T01:50:27;8.40;99.90
22442;DHT22;11388;54.456;9.752;2023-02-22T01:52:54;8.30;99.90
22442;DHT22;11388;54.456;9.752;2023-02-22T01:55:19;8.20;99.90
22442;DHT22;11388;54.456;9.752;2023-02-22T01:57:46;8.30;99.90
22442;DHT22;11388;54.456;9.752;2023-02-22T02:00:14;8.30;99.90
22442;DHT22;11388;54.456;9.752;2023-02-22T02:02:48;8.20;99.90
22442;DHT22;11388;54.456;9.752;2023-02-22T02:05:16;8.20;99.90
22442;DHT22;11388;54.456;9.752;2023-02-22T02:07:44;8.10;99.90
22442;DHT22;11388;54.456;9.752;2023-02-22T02:10:13;8.00;99.90
22442;DHT22;11388;54.456;9.752;2023-02-22T02:12:43;8.10;99.90
22442;DHT22;11388;54.456;9.752;2023-02-22T02:15:24;8.10;99.90
22442;DHT22;11388;54.456;9.752;2023-02-22T02:17:53;8.20;99.90
22442;DHT22;11388;54.456;9.752;2023-02-22T02:34:22;8.20;99.90
22442;DHT22;11388;54.456;9.752;2023-02-22T02:42:23;8.20;99.90
22442;DHT22;11388;54.456;9.752;2023-02-22T02:45:02;8.20;99.90
22442;DHT22;11388;54.456;9.752;2023-02-22T02:47:33;8.10;99.90
22442;DHT22;11388;54.456;9.752;2023-02-22T02:50:18;8.00;99.90
22442;DHT22;11388;54.456;9.752;2023-02-22T02:52:47;8.00;99.90
22442;DHT22;11388;54.456;9.752;2023-02-22T02:55:13;8.00;99.90
22442;DHT22;11388;54.456;9.752;2023-02-22T02:57:41;8.00;99.90
22442;DHT22;11388;54.456;9.752;2023-02-22T03:00:07;8.00;99.90
22442;DHT22;11388;54.456;9.752;2023-02-22T03:08:33;8.00;99.90
22442;DHT22;11388;54.456;9.752;2023-02-22T03:22:23;8.00;99.90
22442;DHT22;11388;54.456;9.752;2023-02-22T03:24:57;7.90;99.90
22442;DHT22;11388;54.456;9.752;2023-02-22T03:27:48;7.90;99.90
22442;DHT22;11388;54.456;9.752;2023-02-22T03:30:21;7.90;99.90
22442;DHT22;11388;54.456;9.752;2023-02-22T03:32:55;7.90;99.90
22442;DHT22;11388;54.456;9.752;2023-02-22T03:35:27;7.90;99.90
22442;DHT22;11388;54.456;9.752;2023-02-22T03:37:58;7.90;99.90
22442;DHT22;11388;54.456;9.752;2023-02-22T03:40:36;7.90;99.90
22442;DHT22;11388;54.456;9.752;2023-02-22T03:43:11;7.90;99.90
22442;DHT22;11388;54.456;9.752;2023-02-22T03:45:40;7.90;99.90
22442;DHT22;11388;54.456;9.752;2023-02-22T03:48:48;7.80;99.90
22442;DHT22;11388;54.456;9.752;2023-02-22T03:51:16;7.80;99.90
22442;DHT22;11388;54.456;9.752;2023-02-22T03:53:42;7.90;99.90
22442;DHT22;11388;54.456;9.752;2023-02-22T03:56:19;7.90;99.90
22442;DHT22;11388;54.456;9.752;2023-02-22T03:58:48;7.90;99.90
22442;DHT22;11388;54.456;9.752;2023-02-22T04:01:14;8.00;99.90
22442;DHT22;11388;54.456;9.752;2023-02-22T04:03:40;8.00;99.90
22442;DHT22;11388;54.456;9.752;2023-02-22T04:06:07;7.90;99.90
22442;DHT22;11388;54.456;9.752;2023-02-22T04:08:33;7.90;99.90
22442;DHT22;11388;54.456;9.752;2023-02-22T04:10:59;7.90;99.90
22442;DHT22;11388;54.456;9.752;2023-02-22T04:13:26;8.00;99.90
22442;DHT22;11388;54.456;9.752;2023-02-22T04:15:52;8.00;99.90
22442;DHT22;11388;54.456;9.752;2023-02-22T04:18:17;8.20;99.90
22442;DHT22;11388;54.456;9.752;2023-02-22T04:20:43;8.10;99.90
22442;DHT22;11388;54.456;9.752;2023-02-22T04:23:09;8.20;99.90
22442;DHT22;11388;54.456;9.752;2023-02-22T04:25:35;8.20;99.90
22442;DHT22;11388;54.456;9.752;2023-02-22T04:28:01;8.20;99.90
22442;DHT22;11388;54.456;9.752;2023-02-22T04:30:27;8.20;99.90
22442;DHT22;11388;54.456;9.752;2023-02-22T04:32:55;8.20;99.90
22442;DHT22;11388;54.456;9.752;2023-02-22T04:35:21;8.20;99.90
22442;DHT22;11388;54.456;9.752;2023-02-22T04:37:47;8.10;99.90
22442;DHT22;11388;54.456;9.752;2023-02-22T04:40:14;8.00;99.90
22442;DHT22;11388;54.456;9.752;2023-02-22T04:42:41;8.00;99.90
22442;DHT22;11388;54.456;9.752;2023-02-22T04:45:09;8.00;99.90
22442;DHT22;11388;54.456;9.752;2023-02-22T04:47:36;8.00;99.90
22442;DHT22;11388;54.456;9.752;2023-02-22T04:50:06;8.10;99.90
22442;DHT22;11388;54.456;9.752;2023-02-22T04:52:32;8.10;99.90
22442;DHT22;11388;54.456;9.752;2023-02-22T04:54:57;8.10;99.90
22442;DHT22;11388;54.456;9.752;2023-02-22T04:57:23;8.10;99.90
22442;DHT22;11388;54.456;9.752;2023-02-22T04:59:49;8.00;99.90
22442;DHT22;11388;54.456;9.752;2023-02-22T05:02:16;8.10;99.90
22442;DHT22;11388;54.456;9.752;2023-02-22T05:04:41;8.10;99.90
22442;DHT22;11388;54.456;9.752;2023-02-22T05:07:07;8.00;99.90
22442;DHT22;11388;54.456;9.752;2023-02-22T05:09:33;8.10;99.90
22442;DHT22;11388;54.456;9.752;2023-02-22T05:11:58;8.20;99.90
22442;DHT22;11388;54.456;9.752;2023-02-22T05:14:24;8.20;99.90
22442;DHT22;11388;54.456;9.752;2023-02-22T05:16:53;8.30;99.90
22442;DHT22;11388;54.456;9.752;2023-02-22T05:19:19;8.20;99.90
22442;DHT22;11388;54.456;9.752;2023-02-22T05:21:46;8.20;99.90
22442;DHT22;11388;54.456;9.752;2023-02-22T05:24:15;8.30;99.90
22442;DHT22;11388;54.456;9.752;2023-02-22T05:26:42;8.20;99.90
22442;DHT22;11388;54.456;9.752;2023-02-22T05:29:08;8.10;99.90
22442;DHT22;11388;54.456;9.752;2023-02-22T05:31:34;8.20;99.90
22442;DHT22;11388;54.456;9.752;2023-02-22T05:33:59;8.10;99.90
22442;DHT22;11388;54.456;9.752;2023-02-22T05:36:25;8.10;99.90
22442;DHT22;11388;54.456;9.752;2023-02-22T05:38:52;8.00;99.90
22442;DHT22;11388;54.456;9.752;2023-02-22T05:41:18;8.00;99.90
22442;DHT22;11388;54.456;9.752;2023-02-22T05:43:44;7.90;99.90
22442;DHT22;11388;54.456;9.752;2023-02-22T05:46:10;7.90;99.90
22442;DHT22;11388;54.456;9.752;2023-02-22T05:48:35;7.90;99.90
22442;DHT22;11388;54.456;9.752;2023-02-22T05:51:01;7.80;99.90
22442;DHT22;11388;54.456;9.752;2023-02-22T05:53:28;7.80;99.90
22442;DHT22;11388;54.456;9.752;2023-02-22T05:55:54;7.80;99.90
22442;DHT22;11388;54.456;9.752;2023-02-22T05:58:20;7.80;99.90
22442;DHT22;11388;54.456;9.752;2023-02-22T06:00:45;7.90;99.90
22442;DHT22;11388;54.456;9.752;2023-02-22T06:03:11;8.00;99.90
22442;DHT22;11388;54.456;9.752;2023-02-22T06:05:37;8.00;99.90
22442;DHT22;11388;54.456;9.752;2023-02-22T06:08:04;8.00;99.90
22442;DHT22;11388;54.456;9.752;2023-02-22T06:10:30;7.90;99.90
22442;DHT22;11388;54.456;9.752;2023-02-22T06:12:57;7.90;99.90
22442;DHT22;11388;54.456;9.752;2023-02-22T06:15:24;8.10;99.90
22442;DHT22;11388;54.456;9.752;2023-02-22T06:17:50;8.20;99.90
22442;DHT22;11388;54.456;9.752;2023-02-22T06:20:19;8.30;99.90
22442;DHT22;11388;54.456;9.752;2023-02-22T06:22:49;8.40;99.90
22442;DHT22;11388;54.456;9.752;2023-02-22T06:25:18;8.30;99.90
22442;DHT22;11388;54.456;9.752;2023-02-22T06:27:44;8.30;99.90
22442;DHT22;11388;54.456;9.752;2023-02-22T06:30:10;8.20;99.90
22442;DHT22;11388;54.456;9.752;2023-02-22T06:32:37;8.20;99.90
22442;DHT22;11388;54.456;9.752;2023-02-22T06:35:03;8.20;99.90
22442;DHT22;11388;54.456;9.752;2023-02-22T06:37:29;8.10;99.90
22442;DHT22;11388;54.456;9.752;2023-02-22T06:39:54;8.10;99.90
22442;DHT22;11388;54.456;9.752;2023-02-22T06:42:20;8.00;99.90
22442;DHT22;11388;54.456;9.752;2023-02-22T06:44:45;7.90;99.90
22442;DHT22;11388;54.456;9.752;2023-02-22T06:47:11;8.00;99.90
22442;DHT22;11388;54.456;9.752;2023-02-22T06:49:37;7.90;99.90
22442;DHT22;11388;54.456;9.752;2023-02-22T06:52:07;7.90;99.90
22442;DHT22;11388;54.456;9.752;2023-02-22T06:54:32;8.00;99.90
22442;DHT22;11388;54.456;9.752;2023-02-22T06:56:58;8.10;99.90
22442;DHT22;11388;54.456;9.752;2023-02-22T06:59:24;8.10;99.90
22442;DHT22;11388;54.456;9.752;2023-02-22T07:01:49;8.10;99.90
22442;DHT22;11388;54.456;9.752;2023-02-22T07:04:15;8.10;99.90
22442;DHT22;11388;54.456;9.752;2023-02-22T07:06:46;8.20;99.90
22442;DHT22;11388;54.456;9.752;2023-02-22T07:09:13;8.10;99.90
22442;DHT22;11388;54.456;9.752;2023-02-22T07:11:40;8.10;99.90
22442;DHT22;11388;54.456;9.752;2023-02-22T07:14:05;8.10;99.90
22442;DHT22;11388;54.456;9.752;2023-02-22T07:16:31;8.10;99.90
22442;DHT22;11388;54.456;9.752;2023-02-22T07:18:58;8.20;99.90
22442;DHT22;11388;54.456;9.752;2023-02-22T07:21:25;8.20;99.90
22442;DHT22;11388;54.456;9.752;2023-02-22T07:23:52;8.20;99.90
22442;DHT22;11388;54.456;9.752;2023-02-22T07:26:19;8.20;99.90
22442;DHT22;11388;54.456;9.752;2023-02-22T07:28:45;8.20;99.90
22442;DHT22;11388;54.456;9.752;2023-02-22T07:31:11;8.10;99.90
22442;DHT22;11388;54.456;9.752;2023-02-22T07:33:36;8.20;99.90
22442;DHT22;11388;54.456;9.752;2023-02-22T07:36:02;8.20;99.90
22442;DHT22;11388;54.456;9.752;2023-02-22T07:38:28;8.20;99.90
22442;DHT22;11388;54.456;9.752;2023-02-22T07:40:53;8.30;99.90
22442;DHT22;11388;54.456;9.752;2023-02-22T07:43:21;8.30;99.90
22442;DHT22;11388;54.456;9.752;2023-02-22T07:45:51;8.30;99.90
22442;DHT22;11388;54.456;9.752;2023-02-22T07:48:18;8.30;99.90
22442;DHT22;11388;54.456;9.752;2023-02-22T07:50:44;8.30;99.90
22442;DHT22;11388;54.456;9.752;2023-02-22T07:53:12;8.50;99.90
22442;DHT22;11388;54.456;9.752;2023-02-22T07:55:38;8.40;99.90
22442;DHT22;11388;54.456;9.752;2023-02-22T07:58:06;8.50;99.90
22442;DHT22;11388;54.456;9.752;2023-02-22T08:00:35;8.50;99.90
22442;DHT22;11388;54.456;9.752;2023-02-22T08:03:03;8.50;99.90
22442;DHT22;11388;54.456;9.752;2023-02-22T08:05:30;8.50;99.90
22442;DHT22;11388;54.456;9.752;2023-02-22T08:07:56;8.40;99.90
22442;DHT22;11388;54.456;9.752;2023-02-22T08:10:23;8.50;99.90
22442;DHT22;11388;54.456;9.752;2023-02-22T08:12:50;8.60;99.90
22442;DHT22;11388;54.456;9.752;2023-02-22T08:15:22;8.60;99.90
22442;DHT22;11388;54.456;9.752;2023-02-22T08:17:49;8.60;99.90
22442;DHT22;11388;54.456;9.752;2023-02-22T08:20:15;8.50;99.90
22442;DHT22;11388;54.456;9.752;2023-02-22T08:22:44;8.40;99.90
22442;DHT22;11388;54.456;9.752;2023-02-22T08:25:10;8.50;99.90
22442;DHT22;11388;54.456;9.752;2023-02-22T08:27:36;8.50;99.90
22442;DHT22;11388;54.456;9.752;2023-02-22T08:30:03;8.50;99.90
22442;DHT22;11388;54.456;9.752;2023-02-22T08:32:29;8.50;99.90
22442;DHT22;11388;54.456;9.752;2023-02-22T08:34:54;8.60;99.90
22442;DHT22;11388;54.456;9.752;2023-02-22T08:37:20;8.60;99.90
22442;DHT22;11388;54.456;9.752;2023-02-22T08:39:46;8.70;99.90
22442;DHT22;11388;54.456;9.752;2023-02-22T08:42:12;8.70;99.90
22442;DHT22;11388;54.456;9.752;2023-02-22T08:44:38;8.70;99.90
22442;DHT22;11388;54.456;9.752;2023-02-22T08:47:05;8.80;99.90
22442;DHT22;11388;54.456;9.752;2023-02-22T08:49:31;8.90;99.90
22442;DHT22;11388;54.456;9.752;2023-02-22T08:51:56;8.80;99.90
22442;DHT22;11388;54.456;9.752;2023-02-22T08:54:22;8.70;99.90
22442;DHT22;11388;54.456;9.752;2023-02-22T08:56:48;8.80;99.90
22442;DHT22;11388;54.456;9.752;2023-02-22T08:59:15;8.70;99.90
22442;DHT22;11388;54.456;9.752;2023-02-22T09:01:41;8.60;99.90
22442;DHT22;11388;54.456;9.752;2023-02-22T09:04:06;8.60;99.90
22442;DHT22;11388;54.456;9.752;2023-02-22T09:06:32;8.70;99.90
22442;DHT22;11388;54.456;9.752;2023-02-22T09:08:57;8.70;99.90
22442;DHT22;11388;54.456;9.752;2023-02-22T09:11:23;8.70;99.90
22442;DHT22;11388;54.456;9.752;2023-02-22T09:13:49;8.60;99.90
22442;DHT22;11388;54.456;9.752;2023-02-22T09:16:15;8.60;99.90
22442;DHT22;11388;54.456;9.752;2023-02-22T09:18:40;8.70;99.90
22442;DHT22;11388;54.456;9.752;2023-02-22T09:21:06;8.80;99.90
22442;DHT22;11388;54.456;9.752;2023-02-22T09:23:32;8.80;99.90
22442;DHT22;11388;54.456;9.752;2023-02-22T09:25:59;8.80;99.90
22442;DHT22;11388;54.456;9.752;2023-02-22T09:28:28;8.90;99.90
22442;DHT22;11388;54.456;9.752;2023-02-22T09:30:53;8.90;99.90
22442;DHT22;11388;54.456;9.752;2023-02-22T09:33:20;8.90;99.90
22442;DHT22;11388;54.456;9.752;2023-02-22T09:35:47;9.10;99.90
22442;DHT22;11388;54.456;9.752;2023-02-22T09:38:23;9.10;99.90
22442;DHT22;11388;54.456;9.752;2023-02-22T09:43:44;9.30;99.90
22442;DHT22;11388;54.456;9.752;2023-02-22T09:46:20;9.30;99.90
22442;DHT22;11388;54.456;9.752;2023-02-22T09:48:55;9.40;99.90
22442;DHT22;11388;54.456;9.752;2023-02-22T09:51:26;9.40;99.90
22442;DHT22;11388;54.456;9.752;2023-02-22T09:53:57;9.40;99.90
22442;DHT22;11388;54.456;9.752;2023-02-22T09:56:24;9.50;99.90
22442;DHT22;11388;54.456;9.752;2023-02-22T09:58:54;9.40;99.90
22442;DHT22;11388;54.456;9.752;2023-02-22T10:01:37;9.40;99.90
22442;DHT22;11388;54.456;9.752;2023-02-22T10:09:41;9.50;99.90
22442;DHT22;11388;54.456;9.752;2023-02-22T10:18:21;9.50;99.90
22442;DHT22;11388;54.456;9.752;2023-02-22T10:26:21;9.70;99.90
22442;DHT22;11388;54.456;9.752;2023-02-22T10:31:32;9.50;99.90
22442;DHT22;11388;54.456;9.752;2023-02-22T10:34:16;9.60;99.90
22442;DHT22;11388;54.456;9.752;2023-02-22T10:36:47;9.70;99.90
22442;DHT22;11388;54.456;9.752;2023-02-22T10:39:31;9.80;99.90
22442;DHT22;11388;54.456;9.752;2023-02-22T10:42:02;9.80;99.90
22442;DHT22;11388;54.456;9.752;2023-02-22T10:44:34;9.90;99.90
22442;DHT22;11388;54.456;9.752;2023-02-22T10:47:02;9.90;99.90
22442;DHT22;11388;54.456;9.752;2023-02-22T10:49:51;10.10;99.90
22442;DHT22;11388;54.456;9.752;2023-02-22T10:52:24;10.00;99.90
22442;DHT22;11388;54.456;9.752;2023-02-22T10:54:51;10.10;99.90
22442;DHT22;11388;54.456;9.752;2023-02-22T10:57:27;10.20;99.90
22442;DHT22;11388;54.456;9.752;2023-02-22T10:59:54;10.40;99.90
22442;DHT22;11388;54.456;9.752;2023-02-22T11:02:32;10.60;99.90
22442;DHT22;11388;54.456;9.752;2023-02-22T11:05:01;10.70;99.90
22442;DHT22;11388;54.456;9.752;2023-02-22T11:07:30;10.70;99.90
22442;DHT22;11388;54.456;9.752;2023-02-22T11:09:58;10.80;99.90
22442;DHT22;11388;54.456;9.752;2023-02-22T11:12:26;11.00;99.90
22442;DHT22;11388;54.456;9.752;2023-02-22T11:14:53;11.00;99.90
22442;DHT22;11388;54.456;9.752;2023-02-22T11:17:28;11.10;99.90
22442;DHT22;11388;54.456;9.752;2023-02-22T11:19:55;11.10;99.90
22442;DHT22;11388;54.456;9.752;2023-02-22T11:22:35;11.20;99.90
22442;DHT22;11388;54.456;9.752;2023-02-22T11:25:03;11.20;99.90
22442;DHT22;11388;54.456;9.752;2023-02-22T11:27:38;11.40;99.90
22442;DHT22;11388;54.456;9.752;2023-02-22T11:30:25;11.30;99.90
22442;DHT22;11388;54.456;9.752;2023-02-22T11:32:57;11.10;99.90
22442;DHT22;11388;54.456;9.752;2023-02-22T11:38:20;10.80;99.90
22442;DHT22;11388;54.456;9.752;2023-02-22T11:41:04;10.80;99.90
22442;DHT22;11388;54.456;9.752;2023-02-22T11:43:32;10.70;99.90
22442;DHT22;11388;54.456;9.752;2023-02-22T11:46:08;10.70;99.90
22442;DHT22;11388;54.456;9.752;2023-02-22T11:48:36;10.60;99.90
22442;DHT22;11388;54.456;9.752;2023-02-22T11:57:31;10.50;99.90
22442;DHT22;11388;54.456;9.752;2023-02-22T12:00:21;10.60;99.90
22442;DHT22;11388;54.456;9.752;2023-02-22T12:03:17;10.50;99.90
22442;DHT22;11388;54.456;9.752;2023-02-22T12:05:55;10.60;99.90
22442;DHT22;11388;54.456;9.752;2023-02-22T12:14:08;10.80;99.90
22442;DHT22;11388;54.456;9.752;2023-02-22T12:16:56;10.80;99.90
22442;DHT22;11388;54.456;9.752;2023-02-22T12:19:40;10.90;99.90
22442;DHT22;11388;54.456;9.752;2023-02-22T12:22:44;10.90;99.90
22442;DHT22;11388;54.456;9.752;2023-02-22T12:25:20;10.90;99.90
22442;DHT22;11388;54.456;9.752;2023-02-22T12:27:53;10.80;99.90
22442;DHT22;11388;54.456;9.752;2023-02-22T12:30:27;10.90;99.90
22442;DHT22;11388;54.456;9.752;2023-02-22T12:32:57;10.90;99.90
22442;DHT22;11388;54.456;9.752;2023-02-22T12:35:50;10.80;99.90
22442;DHT22;11388;54.456;9.752;2023-02-22T12:38:26;10.80;99.90
22442;DHT22;11388;54.456;9.752;2023-02-22T12:43:40;10.60;99.90
22442;DHT22;11388;54.456;9.752;2023-02-22T12:46:39;10.70;99.90
22442;DHT22;11388;54.456;9.752;2023-02-22T12:54:33;10.80;99.90
22442;DHT22;11388;54.456;9.752;2023-02-22T12:57:07;10.70;99.90
22442;DHT22;11388;54.456;9.752;2023-02-22T12:59:40;10.70;99.90
22442;DHT22;11388;54.456;9.752;2023-02-22T13:04:51;10.90;99.90
22442;DHT22;11388;54.456;9.752;2023-02-22T13:07:44;10.80;99.90
22442;DHT22;11388;54.456;9.752;2023-02-22T13:13:08;10.80;99.90
22442;DHT22;11388;54.456;9.752;2023-02-22T13:18:29;10.90;99.90
22442;DHT22;11388;54.456;9.752;2023-02-22T13:21:07;10.80;99.90
22442;DHT22;11388;54.456;9.752;2023-02-22T13:23:45;10.90;99.90
22442;DHT22;11388;54.456;9.752;2023-02-22T13:29:11;10.70;99.90
22442;DHT22;11388;54.456;9.752;2023-02-22T13:31:57;10.80;99.90
22442;DHT22;11388;54.456;9.752;2023-02-22T13:37:15;10.90;99.90
22442;DHT22;11388;54.456;9.752;2023-02-22T13:53:53;11.10;99.90
22442;DHT22;11388;54.456;9.752;2023-02-22T13:56:30;11.10;99.90
22442;DHT22;11388;54.456;9.752;2023-02-22T13:59:01;11.20;99.90
22442;DHT22;11388;54.456;9.752;2023-02-22T14:04:32;10.90;99.90
22442;DHT22;11388;54.456;9.752;2023-02-22T14:09:50;10.80;99.90
22442;DHT22;11388;54.456;9.752;2023-02-22T14:12:51;10.80;99.90
22442;DHT22;11388;54.456;9.752;2023-02-22T14:15:18;10.80;99.90
22442;DHT22;11388;54.456;9.752;2023-02-22T14:17:52;10.90;99.90
22442;DHT22;11388;54.456;9.752;2023-02-22T14:20:31;10.90;99.90
22442;DHT22;11388;54.456;9.752;2023-02-22T14:23:35;10.70;99.90
22442;DHT22;11388;54.456;9.752;2023-02-22T14:26:28;10.60;99.90
22442;DHT22;11388;54.456;9.752;2023-02-22T14:28:58;10.60;99.90
22442;DHT22;11388;54.456;9.752;2023-02-22T14:33:58;10.70;99.90
22442;DHT22;11388;54.456;9.752;2023-02-22T14:44:59;10.70;99.90
22442;DHT22;11388;54.456;9.752;2023-02-22T14:50:50;10.70;99.90
22442;DHT22;11388;54.456;9.752;2023-02-22T14:53:28;10.70;99.90
22442;DHT22;11388;54.456;9.752;2023-02-22T14:55:58;10.60;99.90
22442;DHT22;11388;54.456;9.752;2023-02-22T14:58:40;10.70;99.90
22442;DHT22;11388;54.456;9.752;2023-02-22T15:01:28;10.70;99.90
22442;DHT22;11388;54.456;9.752;2023-02-22T15:03:56;10.60;99.90
22442;DHT22;11388;54.456;9.752;2023-02-22T15:06:25;10.60;99.90
22442;DHT22;11388;54.456;9.752;2023-02-22T15:09:07;10.70;99.90
22442;DHT22;11388;54.456;9.752;2023-02-22T15:11:33;10.70;99.90
22442;DHT22;11388;54.456;9.752;2023-02-22T15:14:00;10.80;99.90
22442;DHT22;11388;54.456;9.752;2023-02-22T15:16:29;10.80;99.90
22442;DHT22;11388;54.456;9.752;2023-02-22T15:19:02;10.80;99.90
22442;DHT22;11388;54.456;9.752;2023-02-22T15:21:29;10.90;99.90
22442;DHT22;11388;54.456;9.752;2023-02-22T15:26:24;10.80;99.90
22442;DHT22;11388;54.456;9.752;2023-02-22T15:28:57;10.70;99.90
22442;DHT22;11388;54.456;9.752;2023-02-22T15:31:31;10.70;99.90
22442;DHT22;11388;54.456;9.752;2023-02-22T15:34:09;10.60;99.90
22442;DHT22;11388;54.456;9.752;2023-02-22T15:36:41;10.60;99.90
22442;DHT22;11388;54.456;9.752;2023-02-22T15:39:27;10.70;99.90
22442;DHT22;11388;54.456;9.752;2023-02-22T15:42:20;10.70;99.90
22442;DHT22;11388;54.456;9.752;2023-02-22T15:44:49;10.60;99.90
22442;DHT22;11388;54.456;9.752;2023-02-22T15:47:27;10.50;99.90
22442;DHT22;11388;54.456;9.752;2023-02-22T15:55:27;10.40;99.90
22442;DHT22;11388;54.456;9.752;2023-02-22T15:57:55;10.40;99.90
22442;DHT22;11388;54.456;9.752;2023-02-22T16:00:31;10.40;99.90
22442;DHT22;11388;54.456;9.752;2023-02-22T16:03:03;10.40;99.90
22442;DHT22;11388;54.456;9.752;2023-02-22T16:05:42;10.30;99.90
22442;DHT22;11388;54.456;9.752;2023-02-22T16:08:19;10.40;99.90
22442;DHT22;11388;54.456;9.752;2023-02-22T16:10:51;10.40;99.90
22442;DHT22;11388;54.456;9.752;2023-02-22T16:13:21;10.40;99.90
22442;DHT22;11388;54.456;9.752;2023-02-22T16:16:30;10.50;99.90
22442;DHT22;11388;54.456;9.752;2023-02-22T16:19:25;10.50;99.90
22442;DHT22;11388;54.456;9.752;2023-02-22T16:21:57;10.50;99.90
22442;DHT22;11388;54.456;9.752;2023-02-22T16:24:25;10.30;99.90
22442;DHT22;11388;54.456;9.752;2023-02-22T16:27:14;10.30;99.90
22442;DHT22;11388;54.456;9.752;2023-02-22T16:29:41;10.30;99.90
22442;DHT22;11388;54.456;9.752;2023-02-22T16:32:07;10.30;99.90
22442;DHT22;11388;54.456;9.752;2023-02-22T16:34:33;10.30;99.90
22442;DHT22;11388;54.456;9.752;2023-02-22T16:36:59;10.20;99.90
22442;DHT22;11388;54.456;9.752;2023-02-22T16:39:29;10.20;99.90
22442;DHT22;11388;54.456;9.752;2023-02-22T16:41:57;10.10;99.90
22442;DHT22;11388;54.456;9.752;2023-02-22T16:44:25;10.00;99.90
22442;DHT22;11388;54.456;9.752;2023-02-22T16:46:52;10.10;99.90
22442;DHT22;11388;54.456;9.752;2023-02-22T16:49:19;10.00;99.90
22442;DHT22;11388;54.456;9.752;2023-02-22T16:52:01;10.00;99.90
22442;DHT22;11388;54.456;9.752;2023-02-22T16:54:34;10.00;99.90
22442;DHT22;11388;54.456;9.752;2023-02-22T16:57:01;10.00;99.90
22442;DHT22;11388;54.456;9.752;2023-02-22T16:59:30;10.00;99.90
22442;DHT22;11388;54.456;9.752;2023-02-22T17:01:57;9.90;99.90
22442;DHT22;11388;54.456;9.752;2023-02-22T17:04:24;9.90;99.90
22442;DHT22;11388;54.456;9.752;2023-02-22T17:06:51;9.90;99.90
22442;DHT22;11388;54.456;9.752;2023-02-22T17:09:17;9.90;99.90
22442;DHT22;11388;54.456;9.752;2023-02-22T17:11:48;9.90;99.90
22442;DHT22;11388;54.456;9.752;2023-02-22T17:14:19;9.80;99.90
22442;DHT22;11388;54.456;9.752;2023-02-22T17:16:48;9.70;99.90
22442;DHT22;11388;54.456;9.752;2023-02-22T17:19:18;9.70;99.90
22442;DHT22;11388;54.456;9.752;2023-02-22T17:21:44;9.70;99.90
22442;DHT22;11388;54.456;9.752;2023-02-22T17:24:16;9.70;99.90
22442;DHT22;11388;54.456;9.752;2023-02-22T17:26:42;9.80;99.90
22442;DHT22;11388;54.456;9.752;2023-02-22T17:29:08;9.80;99.90
22442;DHT22;11388;54.456;9.752;2023-02-22T17:31:34;9.80;99.90
22442;DHT22;11388;54.456;9.752;2023-02-22T17:34:02;9.80;99.90
22442;DHT22;11388;54.456;9.752;2023-02-22T17:36:29;9.80;99.90
22442;DHT22;11388;54.456;9.752;2023-02-22T17:38:54;9.90;99.90
22442;DHT22;11388;54.456;9.752;2023-02-22T17:41:20;9.90;99.90
22442;DHT22;11388;54.456;9.752;2023-02-22T17:43:46;9.90;99.90
22442;DHT22;11388;54.456;9.752;2023-02-22T17:46:12;9.80;99.90
22442;DHT22;11388;54.456;9.752;2023-02-22T17:48:38;9.80;99.90
22442;DHT22;11388;54.456;9.752;2023-02-22T17:51:09;9.70;99.90
22442;DHT22;11388;54.456;9.752;2023-02-22T17:53:35;9.70;99.90
22442;DHT22;11388;54.456;9.752;2023-02-22T17:56:06;9.70;99.90
22442;DHT22;11388;54.456;9.752;2023-02-22T17:58:33;9.60;99.90
22442;DHT22;11388;54.456;9.752;2023-02-22T18:00:59;9.60;99.90
22442;DHT22;11388;54.456;9.752;2023-02-22T18:03:25;9.70;99.90
22442;DHT22;11388;54.456;9.752;2023-02-22T18:05:53;9.70;99.90
22442;DHT22;11388;54.456;9.752;2023-02-22T18:08:20;9.70;99.90
22442;DHT22;11388;54.456;9.752;2023-02-22T18:10:48;9.70;99.90
22442;DHT22;11388;54.456;9.752;2023-02-22T18:13:17;9.80;99.90
22442;DHT22;11388;54.456;9.752;2023-02-22T18:15:45;9.70;99.90
22442;DHT22;11388;54.456;9.752;2023-02-22T18:18:11;9.80;99.90
22442;DHT22;11388;54.456;9.752;2023-02-22T18:20:40;9.70;99.90
22442;DHT22;11388;54.456;9.752;2023-02-22T18:23:12;9.70;99.90